Saturday, February 28, 2015
20:48 UTC
  |  Log In   |  Register Free
Airport Search:

Ellington Airport
(KEFD)

FAA data valid effective January 08, 2015 - March 05, 2015 (unless otherwise noted).

 
 
 
 
 
 
 
 
 
 
 
 
 
 

Current Aviation Weather for Ellington Airport (KEFD)

The most recent METAR observation for KEFD was updated at: 2011
METAR Summary (Translated METAR)
KEFD
281850Z 09010KT 10SM OVC035 12/06 A3028
KHOU
281953Z 09010G16KT 10SM OVC019 12/07 A3023 RMK AO2 SLP242 T01220072
(6.7 nm NW from KEFD)
KLVJ
281953Z AUTO 08013G24KT 10SM OVC016 13/08 A3025 RMK AO2 SLP242 T01280078
(6.8 nm SW from KEFD)
TAF Summary (Translated TAF)
KEFD
2820/0202 09009KT 9999 OVC025 QNH3020INS BECMG 2823/2824 09009KT 8000 -SHRA BKN015 OVC020 QNH3020INS BECMG 0102/0103 09009KT 6000 -SHRA BKN007 OVC015 QNH3017INS TX19/0120Z TN10/0106Z
KHOU
(6.7 nm NW from KEFD)
281741Z 2818/0118 08014G19KT P6SM BKN029 BKN100 FM282000 10011KT P6SM VCSH BKN035 FM010400 10008KT 5SM BR VCSH BKN015 OVC025 FM010800 09009KT 2SM BR VCSH BKN008 OVC012 FM011300 11009KT 4SM -DZ OVC007 FM011500 07008KT 6SM BR OVC010
  Airport Weather Conditions for KEFD

 Current Weather at EFD
54° F
Overcast
East winds at 11.5 mph
EFD NOAA Radar

Pressure: 30.28 in
Humidity: 67%
Wind: East at 11.5 MPH (10 KT)
Dew Point: 42.8°F
Visibility: 10.00 mi


Airport Weather Forecast for KEFD

Translated METAR and TAF for KEFD
Translated METAR for KEFD (2048 UTC 28 February 2015)
found at http://aviationweather.gov/adds/metars/
 
METAR text: KEFD 281950Z 08009KT 10SM OVC035 13/07 A3024
Conditions at: KEFD (HOUSTON/ELLINGTO, TX, US) observed 1950 UTC 28 February 2015
Temperature: 13.0°C (55°F)
Dewpoint: 7.0°C (45°F) [RH = 67%]
Pressure (altimeter): 30.24 inches Hg (1024.1 mb)
Winds: from the E (80 degrees) at 10 MPH (9 knots; 4.7 m/s)
Visibility: 10 or more miles (16+ km)
Ceiling: 3500 feet AGL
Clouds: overcast cloud deck at 3500 feet AGL
Weather: no significant weather observed at this time
Translated TAF for KEFD
Forecast for: KEFD (HOUSTON/ELLINGTO, TX, US)
TAF Text: TAF KEFD 2820/0202 09009KT 9999 OVC025 QNH3020INS
Forecast period: 2000 to 2300 UTC 28 February 2015
Forecast type: FROM: standard forecast or significant change
Winds: from the E (90 degrees) at 10 MPH (9 knots; 4.7 m/s)
Visibility: 6 or more miles (10+ km)
Ceiling: 2500 feet AGL
Clouds: overcast cloud deck at 2500 feet AGL
Weather: no significant weather forecast for this period
TAF Text: BECMG 2823/2824 09009KT 8000 -SHRA BKN015 OVC020 QNH3020INS
Forecast period: 2300 UTC 28 February 2015 to 0200 UTC 01 March 2015
Forecast type: BECOMING: Conditions expected to become as follows by 0000 UTC 01 March 2015
Winds: from the E (90 degrees) at 10 MPH (9 knots; 4.7 m/s)
Visibility: 5 miles (8 km)
Ceiling: 1500 feet AGL
Clouds: broken clouds at 1500 feet AGL
overcast cloud deck at 2000 feet AGL
Weather: -SHRA  (light rain showers)
TAF Text: BECMG 0102/0103 09009KT 6000 -SHRA BKN007 OVC015 QNH3017INS TX19/0120Z TN10/0106Z
Forecast period: 0200 UTC 01 March 2015 to 0200 UTC 02 March 2015
Forecast type: BECOMING: Conditions expected to become as follows by 0300 UTC 01 March 2015
Winds: from the E (90 degrees) at 10 MPH (9 knots; 4.7 m/s)
Visibility: 4 miles (6 km)
Ceiling: 700 feet AGL
Clouds: broken clouds at 700 feet AGL
overcast cloud deck at 1500 feet AGL
Weather: -SHRA  (light rain showers)

Find All Airport Services Find A Hotel Find A Rental Car Find A Golf Course Find A Restaurant $100 Hamburger



FBO's on the Field
FBO Company Facility Photos Services Transportation Aviation Fuel Prices: Prices include tax
Catering Weather Repair Courtesy Rental Type 100LL JetA JetA+ MOGAS 8087
 
Landmark Aviation - EFD

This FBO has not yet been rated
FS:Independent
Last Updated: Feb-27
Login to update fuel prices
SS:
Contact Landmark Aviation - EFDMore FBO Information
 
Add another FBO Facility Photos Catering Weather Repair Courtesy Rental Type 100LL JetA JetA+ MOGAS 8087
Services Transportation Aviation Fuel Prices: Prices include tax


model-print
model-print
model-print
model-print